sensor_id;sensor_type;location;lat;lon;timestamp;temperature;humidity
42905;DHT22;28550;51.228;4.528;2022-11-15T00:19:43;9.40;99.50
42905;DHT22;28550;51.228;4.528;2022-11-15T01:07:06;10.70;96.90
42905;DHT22;28550;51.228;4.528;2022-11-15T01:43:20;11.10;99.90
42905;DHT22;28550;51.228;4.528;2022-11-15T02:09:22;11.70;98.20
42905;DHT22;28550;51.228;4.528;2022-11-15T06:53:10;10.80;96.10
42905;DHT22;28550;51.228;4.528;2022-11-15T06:55:36;10.80;96.00
42905;DHT22;28550;51.228;4.528;2022-11-15T06:58:04;11.00;94.10
42905;DHT22;28550;51.228;4.528;2022-11-15T07:00:33;11.20;91.70
42905;DHT22;28550;51.228;4.528;2022-11-15T07:03:02;11.30;86.60
42905;DHT22;28550;51.228;4.528;2022-11-15T07:05:39;11.30;84.90
42905;DHT22;28550;51.228;4.528;2022-11-15T07:08:05;11.10;86.50
42905;DHT22;28550;51.228;4.528;2022-11-15T07:13:46;11.00;90.10
42905;DHT22;28550;51.228;4.528;2022-11-15T07:44:59;10.00;98.90
42905;DHT22;28550;51.228;4.528;2022-11-15T07:47:32;10.10;99.20
42905;DHT22;28550;51.228;4.528;2022-11-15T07:53:37;10.20;99.00
42905;DHT22;28550;51.228;4.528;2022-11-15T07:56:53;10.40;98.40
42905;DHT22;28550;51.228;4.528;2022-11-15T07:59:22;10.50;97.40
42905;DHT22;28550;51.228;4.528;2022-11-15T08:01:47;10.80;96.10
42905;DHT22;28550;51.228;4.528;2022-11-15T08:04:13;11.00;93.40
42905;DHT22;28550;51.228;4.528;2022-11-15T08:06:38;11.10;90.80
42905;DHT22;28550;51.228;4.528;2022-11-15T08:14:43;11.60;74.10
42905;DHT22;28550;51.228;4.528;2022-11-15T08:17:09;11.70;72.60
42905;DHT22;28550;51.228;4.528;2022-11-15T08:19:35;11.50;75.50
42905;DHT22;28550;51.228;4.528;2022-11-15T08:22:00;11.70;74.80
42905;DHT22;28550;51.228;4.528;2022-11-15T08:24:27;12.10;61.70
42905;DHT22;28550;51.228;4.528;2022-11-15T08:26:52;12.50;44.20
42905;DHT22;28550;51.228;4.528;2022-11-15T08:35:11;13.70;1.00
42905;DHT22;28550;51.228;4.528;2022-11-15T08:37:39;14.20;1.00
42905;DHT22;28550;51.228;4.528;2022-11-15T08:40:05;14.30;1.00
42905;DHT22;28550;51.228;4.528;2022-11-15T08:42:42;14.70;1.00
42905;DHT22;28550;51.228;4.528;2022-11-15T08:45:16;14.60;1.00
42905;DHT22;28550;51.228;4.528;2022-11-15T08:47:42;14.20;99.90
42905;DHT22;28550;51.228;4.528;2022-11-15T08:53:05;13.80;1.00
42905;DHT22;28550;51.228;4.528;2022-11-15T08:58:58;13.90;1.00
42905;DHT22;28550;51.228;4.528;2022-11-15T09:01:24;14.10;1.00
42905;DHT22;28550;51.228;4.528;2022-11-15T09:03:49;14.20;99.90
42905;DHT22;28550;51.228;4.528;2022-11-15T09:56:38;12.80;1.00
42905;DHT22;28550;51.228;4.528;2022-11-15T10:04:59;12.60;1.00
42905;DHT22;28550;51.228;4.528;2022-11-15T10:08:24;12.90;1.00
42905;DHT22;28550;51.228;4.528;2022-11-15T10:21:25;13.00;1.00
42905;DHT22;28550;51.228;4.528;2022-11-15T10:26:28;12.80;1.00
42905;DHT22;28550;51.228;4.528;2022-11-15T10:29:00;12.90;1.00
42905;DHT22;28550;51.228;4.528;2022-11-15T10:34:50;13.10;1.00
42905;DHT22;28550;51.228;4.528;2022-11-15T16:22:08;11.60;99.90
42905;DHT22;28550;51.228;4.528;2022-11-15T16:49:42;11.60;99.90
42905;DHT22;28550;51.228;4.528;2022-11-15T17:12:57;11.50;99.90
42905;DHT22;28550;51.228;4.528;2022-11-15T17:15:26;11.40;99.90
42905;DHT22;28550;51.228;4.528;2022-11-15T17:20:40;11.50;99.90
42905;DHT22;28550;51.228;4.528;2022-11-15T17:23:17;11.50;99.90
42905;DHT22;28550;51.228;4.528;2022-11-15T17:25:43;11.50;99.90
42905;DHT22;28550;51.228;4.528;2022-11-15T17:28:09;11.60;99.90
42905;DHT22;28550;51.228;4.528;2022-11-15T17:30:34;11.60;99.90
42905;DHT22;28550;51.228;4.528;2022-11-15T17:33:00;11.70;99.90
42905;DHT22;28550;51.228;4.528;2022-11-15T17:35:26;11.60;99.90
42905;DHT22;28550;51.228;4.528;2022-11-15T17:37:58;11.60;99.90
42905;DHT22;28550;51.228;4.528;2022-11-15T17:40:24;11.60;99.90
42905;DHT22;28550;51.228;4.528;2022-11-15T17:43:35;11.60;99.90
42905;DHT22;28550;51.228;4.528;2022-11-15T17:49:00;11.60;99.90
42905;DHT22;28550;51.228;4.528;2022-11-15T17:51:35;11.60;99.90
42905;DHT22;28550;51.228;4.528;2022-11-15T17:59:41;11.60;99.90
42905;DHT22;28550;51.228;4.528;2022-11-15T18:05:25;11.70;99.90
42905;DHT22;28550;51.228;4.528;2022-11-15T18:08:15;11.70;99.90
42905;DHT22;28550;51.228;4.528;2022-11-15T18:11:15;11.70;99.90
42905;DHT22;28550;51.228;4.528;2022-11-15T18:13:49;11.70;99.90
42905;DHT22;28550;51.228;4.528;2022-11-15T18:24:36;11.80;99.90
42905;DHT22;28550;51.228;4.528;2022-11-15T18:27:07;11.70;99.90
42905;DHT22;28550;51.228;4.528;2022-11-15T18:29:32;11.80;99.90
42905;DHT22;28550;51.228;4.528;2022-11-15T18:40:24;11.70;99.90
42905;DHT22;28550;51.228;4.528;2022-11-15T18:42:53;11.80;99.90
42905;DHT22;28550;51.228;4.528;2022-11-15T18:45:24;11.90;99.90
42905;DHT22;28550;51.228;4.528;2022-11-15T18:47:51;11.80;99.90
42905;DHT22;28550;51.228;4.528;2022-11-15T18:50:32;11.80;99.90
42905;DHT22;28550;51.228;4.528;2022-11-15T18:52:57;11.80;99.90
42905;DHT22;28550;51.228;4.528;2022-11-15T18:55:25;11.70;99.90
42905;DHT22;28550;51.228;4.528;2022-11-15T18:58:03;11.80;99.90
42905;DHT22;28550;51.228;4.528;2022-11-15T19:00:30;11.80;99.90
42905;DHT22;28550;51.228;4.528;2022-11-15T19:02:55;11.90;99.90
42905;DHT22;28550;51.228;4.528;2022-11-15T19:05:21;12.00;99.90
42905;DHT22;28550;51.228;4.528;2022-11-15T19:07:47;11.90;99.90
42905;DHT22;28550;51.228;4.528;2022-11-15T19:10:15;11.80;99.90
42905;DHT22;28550;51.228;4.528;2022-11-15T19:12:40;11.80;99.90
42905;DHT22;28550;51.228;4.528;2022-11-15T19:15:06;11.80;99.90
42905;DHT22;28550;51.228;4.528;2022-11-15T19:17:32;11.80;99.90
42905;DHT22;28550;51.228;4.528;2022-11-15T19:20:00;11.80;99.90
42905;DHT22;28550;51.228;4.528;2022-11-15T19:22:30;11.80;99.90
42905;DHT22;28550;51.228;4.528;2022-11-15T19:24:56;11.80;99.90
42905;DHT22;28550;51.228;4.528;2022-11-15T19:27:28;11.90;99.90
42905;DHT22;28550;51.228;4.528;2022-11-15T19:29:54;11.90;99.90
42905;DHT22;28550;51.228;4.528;2022-11-15T19:32:20;11.80;99.90
42905;DHT22;28550;51.228;4.528;2022-11-15T19:34:46;11.80;99.90
42905;DHT22;28550;51.228;4.528;2022-11-15T19:37:18;11.80;99.90
42905;DHT22;28550;51.228;4.528;2022-11-15T19:39:47;11.90;99.90
42905;DHT22;28550;51.228;4.528;2022-11-15T19:42:18;11.80;99.90
42905;DHT22;28550;51.228;4.528;2022-11-15T19:44:45;11.80;99.90
42905;DHT22;28550;51.228;4.528;2022-11-15T19:47:10;11.80;99.90
42905;DHT22;28550;51.228;4.528;2022-11-15T19:49:44;11.80;99.90
42905;DHT22;28550;51.228;4.528;2022-11-15T19:52:10;11.80;99.90
42905;DHT22;28550;51.228;4.528;2022-11-15T19:54:36;11.90;99.90
42905;DHT22;28550;51.228;4.528;2022-11-15T19:57:03;11.80;99.90
42905;DHT22;28550;51.228;4.528;2022-11-15T19:59:28;11.90;99.90
42905;DHT22;28550;51.228;4.528;2022-11-15T20:01:54;12.00;99.90
42905;DHT22;28550;51.228;4.528;2022-11-15T20:04:20;12.00;99.90
42905;DHT22;28550;51.228;4.528;2022-11-15T20:06:51;12.00;99.90
42905;DHT22;28550;51.228;4.528;2022-11-15T20:09:17;12.00;99.90
42905;DHT22;28550;51.228;4.528;2022-11-15T20:11:44;12.00;99.90
42905;DHT22;28550;51.228;4.528;2022-11-15T20:14:09;12.00;99.90
42905;DHT22;28550;51.228;4.528;2022-11-15T20:16:37;12.00;99.90
42905;DHT22;28550;51.228;4.528;2022-11-15T20:19:03;12.00;99.90
42905;DHT22;28550;51.228;4.528;2022-11-15T20:21:28;12.00;99.90
42905;DHT22;28550;51.228;4.528;2022-11-15T20:23:54;12.10;99.90
42905;DHT22;28550;51.228;4.528;2022-11-15T20:26:20;12.10;99.90
42905;DHT22;28550;51.228;4.528;2022-11-15T20:28:47;12.00;99.90
42905;DHT22;28550;51.228;4.528;2022-11-15T20:31:34;12.00;99.90
42905;DHT22;28550;51.228;4.528;2022-11-15T20:34:01;12.00;99.90
42905;DHT22;28550;51.228;4.528;2022-11-15T20:36:29;12.00;99.90
42905;DHT22;28550;51.228;4.528;2022-11-15T20:38:57;12.10;99.90
42905;DHT22;28550;51.228;4.528;2022-11-15T20:41:23;12.10;99.90
42905;DHT22;28550;51.228;4.528;2022-11-15T20:43:49;12.10;99.90
42905;DHT22;28550;51.228;4.528;2022-11-15T20:46:15;12.10;99.90
42905;DHT22;28550;51.228;4.528;2022-11-15T20:48:44;12.10;99.90
42905;DHT22;28550;51.228;4.528;2022-11-15T20:51:15;12.10;99.90
42905;DHT22;28550;51.228;4.528;2022-11-15T20:53:42;12.10;99.90
42905;DHT22;28550;51.228;4.528;2022-11-15T20:56:11;12.10;99.90
42905;DHT22;28550;51.228;4.528;2022-11-15T20:58:47;12.00;99.90
42905;DHT22;28550;51.228;4.528;2022-11-15T21:01:14;12.10;99.90
42905;DHT22;28550;51.228;4.528;2022-11-15T21:03:44;12.10;99.90
42905;DHT22;28550;51.228;4.528;2022-11-15T21:06:32;12.10;99.90
42905;DHT22;28550;51.228;4.528;2022-11-15T21:09:07;12.20;99.90
42905;DHT22;28550;51.228;4.528;2022-11-15T21:11:53;12.20;99.90
42905;DHT22;28550;51.228;4.528;2022-11-15T21:14:37;12.30;99.90
42905;DHT22;28550;51.228;4.528;2022-11-15T21:17:08;12.30;99.90
42905;DHT22;28550;51.228;4.528;2022-11-15T21:19:37;12.20;99.90
42905;DHT22;28550;51.228;4.528;2022-11-15T21:22:11;12.30;99.90
42905;DHT22;28550;51.228;4.528;2022-11-15T21:24:40;12.20;99.90
42905;DHT22;28550;51.228;4.528;2022-11-15T21:30:03;12.10;99.90
42905;DHT22;28550;51.228;4.528;2022-11-15T21:32:30;12.10;99.90
42905;DHT22;28550;51.228;4.528;2022-11-15T21:35:01;12.20;99.90
42905;DHT22;28550;51.228;4.528;2022-11-15T21:37:32;12.30;99.90
42905;DHT22;28550;51.228;4.528;2022-11-15T21:39:58;12.20;99.90
42905;DHT22;28550;51.228;4.528;2022-11-15T21:42:23;12.10;99.90
42905;DHT22;28550;51.228;4.528;2022-11-15T21:51:08;12.10;99.90
42905;DHT22;28550;51.228;4.528;2022-11-15T21:59:59;12.20;99.90
42905;DHT22;28550;51.228;4.528;2022-11-15T22:02:43;12.10;99.90
42905;DHT22;28550;51.228;4.528;2022-11-15T22:05:12;12.20;99.90
42905;DHT22;28550;51.228;4.528;2022-11-15T22:08:26;12.10;99.90
42905;DHT22;28550;51.228;4.528;2022-11-15T22:14:06;12.20;99.90
42905;DHT22;28550;51.228;4.528;2022-11-15T22:19:19;12.20;99.90
42905;DHT22;28550;51.228;4.528;2022-11-15T22:21:45;12.10;99.90
42905;DHT22;28550;51.228;4.528;2022-11-15T22:24:11;12.10;99.90
42905;DHT22;28550;51.228;4.528;2022-11-15T22:26:37;12.10;99.90
42905;DHT22;28550;51.228;4.528;2022-11-15T22:29:10;12.10;99.90
42905;DHT22;28550;51.228;4.528;2022-11-15T22:31:54;12.10;99.90
42905;DHT22;28550;51.228;4.528;2022-11-15T22:37:24;12.20;99.90
42905;DHT22;28550;51.228;4.528;2022-11-15T22:51:09;12.30;99.90
42905;DHT22;28550;51.228;4.528;2022-11-15T22:56:38;12.30;99.90
42905;DHT22;28550;51.228;4.528;2022-11-15T23:02:06;12.30;99.90
42905;DHT22;28550;51.228;4.528;2022-11-15T23:04:37;12.30;99.90
42905;DHT22;28550;51.228;4.528;2022-11-15T23:19:05;12.30;99.90
42905;DHT22;28550;51.228;4.528;2022-11-15T23:21:46;12.30;99.90
42905;DHT22;28550;51.228;4.528;2022-11-15T23:24:31;12.30;99.90
42905;DHT22;28550;51.228;4.528;2022-11-15T23:29:53;12.30;99.90
42905;DHT22;28550;51.228;4.528;2022-11-15T23:32:37;12.30;99.90
42905;DHT22;28550;51.228;4.528;2022-11-15T23:43:12;12.30;99.90
42905;DHT22;28550;51.228;4.528;2022-11-15T23:48:19;12.30;99.90
42905;DHT22;28550;51.228;4.528;2022-11-15T23:51:19;12.30;99.90
42905;DHT22;28550;51.228;4.528;2022-11-15T23:53:57;12.30;99.90
